Keyport, Washington
Current Conditions -  °F | °C
As of 2:55 PM on Monday 24 Nov 2014 (Local Time) from KPWT Reporting Station
Broken Clouds Broken Clouds  
Wind Chill:   Ceiling: 4200
Heat Index:   Visibility: 10mi
Dew Point:   Wind: 13mph
Humidity: 100%   Direction: 180°S
Pressure: 30.23"   Gusts: 25mph
Location:  47.7°N, 122.62°W
Report Text: KPWT 242255Z AUTO 18011G22KT 10SM FEW009 FEW032 BKN042 08/08 A3023 RMK AO1 P0001
Loading
Personal Weather Stations






























Interactive Weather Map New forecast layout! Learn more

10-Day Weather Forecast

Advertisements
Track Severe Weather on mobile